Time;durP1;ratioP1;P1;durP2;ratioP2;P2;SDS_P1;SDS_P2;PMS_P1;PMS_P2;Temp;Humidity;BMP_temperature;BMP_pressure;BME280_temperature;BME280_humidity;BME280_pressure;Samples;Min_cycle;Max_cycle;Signal;HPM_P1;HPM_P2
2021/11/12 00:12:57;;;;;;;;;;;;;;;;;;5127000;28;19900;-76
2021/11/12 00:15:22;;;;;;;;;;;;;;;;;;5125229;27;19900;-76
2021/11/12 00:17:47;;;;;;;;;;;;;;;;;;5129044;28;19950;-76
2021/11/12 00:20:13;;;;;;;;;;;;;;;;;;5117797;28;19919;-76
2021/11/12 00:22:38;;;;;;;;;;;;;;;;;;5133022;27;19900;-76
2021/11/12 00:25:03;;;;;;;;;;;;;;;;;;5125891;27;19967;-76
2021/11/12 00:27:29;;;;;;;;;;;;;;;;;;5126000;28;19899;-76
2021/11/12 00:40:31;;;;;;;;;;;;;;;;;;5127247;28;19919;-76
2021/11/12 00:45:28;;;;;;;;;;;;;;;;;;5126155;28;19980;-76
2021/11/12 00:50:41;;;;;;;;;;;;;;;;;;5148767;27;19929;-76
2021/11/12 00:55:34;;;;;;;;;;;;;;;;;;5132627;28;19900;-76
2021/11/12 00:58:00;;;;;;;;;;;;;;;;;;5129503;28;19912;-76
2021/11/12 01:00:26;;;;;;;;;;;;;;;;;;5126916;28;19908;-76
2021/11/12 01:02:51;;;;;;;;;;;;;;;;;;5126095;28;19915;-76
2021/11/12 01:05:16;;;;;;;;;;;;;;;;;;5126619;28;19919;-77
2021/11/12 01:07:41;;;;;;;;;;;;;;;;;;5129461;28;19981;-76
2021/11/12 01:10:07;;;;;;;;;;;;;;;;;;5127033;28;20002;-75
2021/11/12 01:12:32;;;;;;;;;;;;;;;;;;5126065;28;19900;-76
2021/11/12 01:14:57;;;;;;;;;;;;;;;;;;5131399;28;19904;-76
2021/11/12 01:17:22;;;;;;;;;;;;;;;;;;5126672;28;19983;-76
2021/11/12 01:19:48;;;;;;;;;;;;;;;;;;5130413;28;19895;-76
2021/11/12 01:22:14;;;;;;;;;;;;;;;;;;5111864;28;19907;-76
2021/11/12 01:24:40;;;;;;;;;;;;;;;;;;5125908;28;19904;-76
2021/11/12 01:27:06;;;;;;;;;;;;;;;;;;5133028;28;19931;-76
2021/11/12 01:29:31;;;;;;;;;;;;;;;;;;5127785;28;19915;-78
2021/11/12 01:31:58;;;;;;;;;;;;;;;;;;5129956;28;19923;-76
2021/11/12 01:34:23;;;;;;;;;;;;;;;;;;5135214;27;19919;-77
2021/11/12 01:36:48;;;;;;;;;;;;;;;;;;5131074;27;19937;-77
2021/11/12 01:39:13;;;;;;;;;;;;;;;;;;5134122;27;19903;-77
2021/11/12 01:41:43;;;;;;;;;;;;;;;;;;5131425;27;19907;-77
2021/11/12 01:44:10;;;;;;;;;;;;;;;;;;5130870;27;19900;-77
2021/11/12 01:46:47;;;;;;;;;;;;;;;;;;5136127;27;19900;-77
2021/11/12 01:51:51;;;;;;;;;;;;;;;;;;5135427;28;19903;-77
2021/11/12 01:54:42;;;;;;;;;;;;;;;;;;5131282;27;19908;-76
2021/11/12 01:57:56;;;;;;;;;;;;;;;;;;5120896;27;19908;-75
2021/11/12 01:59:56;;;;;;;;;;;;;;;;;;5132129;28;19900;-76
2021/11/12 02:02:22;;;;;;;;;;;;;;;;;;5130763;27;19923;-75
2021/11/12 02:04:47;;;;;;;;;;;;;;;;;;5127514;27;19904;-76
2021/11/12 02:07:13;;;;;;;;;;;;;;;;;;5132189;28;19907;-75
2021/11/12 02:09:38;;;;;;;;;;;;;;;;;;5130205;27;19911;-76
2021/11/12 02:12:08;;;;;;;;;;;;;;;;;;5135959;27;19914;-76
2021/11/12 02:14:34;;;;;;;;;;;;;;;;;;5130246;27;19907;-76
2021/11/12 02:17:03;;;;;;;;;;;;;;;;;;5128849;27;19914;-76
2021/11/12 02:19:29;;;;;;;;;;;;;;;;;;5134124;27;19914;-76
2021/11/12 02:22:01;;;;;;;;;;;;;;;;;;5130081;27;20137;-77
2021/11/12 02:24:26;;;;;;;;;;;;;;;;;;5127006;27;20022;-76
2021/11/12 02:26:56;;;;;;;;;;;;;;;;;;5134601;27;19938;-76
2021/11/12 02:29:23;;;;;;;;;;;;;;;;;;5128588;27;19982;-76
2021/11/12 02:31:48;;;;;;;;;;;;;;;;;;5134772;28;19900;-76
2021/11/12 02:34:14;;;;;;;;;;;;;;;;;;5129965;27;19908;-76
2021/11/12 02:36:39;;;;;;;;;;;;;;;;;;5128785;28;20145;-76
2021/11/12 02:39:05;;;;;;;;;;;;;;;;;;5135482;27;19918;-76
2021/11/12 02:41:30;;;;;;;;;;;;;;;;;;5129282;27;19922;-76
2021/11/12 02:43:55;;;;;;;;;;;;;;;;;;5133526;27;19904;-76
2021/11/12 02:46:20;;;;;;;;;;;;;;;;;;5129016;27;19904;-75
2021/11/12 02:48:45;;;;;;;;;;;;;;;;;;5126928;27;19960;-76
2021/11/12 02:51:11;;;;;;;;;;;;;;;;;;5134148;28;19919;-76
2021/11/12 02:53:37;;;;;;;;;;;;;;;;;;5129291;27;19975;-76
2021/11/12 02:56:06;;;;;;;;;;;;;;;;;;5132912;28;20098;-75
2021/11/12 02:58:31;;;;;;;;;;;;;;;;;;5129022;27;19903;-75
2021/11/12 03:00:57;;;;;;;;;;;;;;;;;;5127747;27;19980;-76
2021/11/12 03:03:22;;;;;;;;;;;;;;;;;;5132467;27;19918;-75
2021/11/12 03:05:48;;;;;;;;;;;;;;;;;;5128372;27;19903;-76
2021/11/12 03:08:13;;;;;;;;;;;;;;;;;;5134794;27;19946;-76
2021/11/12 03:10:38;;;;;;;;;;;;;;;;;;5128077;27;19911;-76
2021/11/12 03:13:03;;;;;;;;;;;;;;;;;;5129408;28;20311;-76
2021/11/12 03:15:29;;;;;;;;;;;;;;;;;;5131049;28;19936;-76
2021/11/12 03:17:55;;;;;;;;;;;;;;;;;;5127811;28;19941;-76
2021/11/12 03:20:20;;;;;;;;;;;;;;;;;;5133942;27;19947;-76
2021/11/12 03:23:21;;;;;;;;;;;;;;;;;;5128415;28;19900;-76
2021/11/12 03:25:43;;;;;;;;;;;;;;;;;;5125970;28;19919;-76
2021/11/12 03:28:16;;;;;;;;;;;;;;;;;;5135041;27;19931;-76
2021/11/12 03:46:54;;;;;;;;;;;;;;;;;;5126297;27;19903;-76
2021/11/12 04:03:20;;;;;;;;;;;;;;;;;;5142150;27;19908;-75
2021/11/12 04:19:07;;;;;;;;;;;;;;;;;;5127299;28;19926;-76
2021/11/12 04:21:54;;;;;;;;;;;;;;;;;;5127067;27;20075;-76
2021/11/12 05:10:39;;;;;;;;;;;;;;;;;;;;;
2021/11/12 05:13:20;;;;;;;;;;;;;;;;;;5136264;27;19900;-76
2021/11/12 05:51:22;;;;;;;;;;;;;;;;;;5129690;28;19908;-77
2021/11/12 05:56:31;;;;;;;;;;;;;;;;;;5136898;28;19903;-77
2021/11/12 05:58:56;;;;;;;;;;;;;;;;;;5129659;28;19950;-77
2021/11/12 06:01:22;;;;;;;;;;;;;;;;;;5135750;27;19910;-77
2021/11/12 06:03:47;;;;;;;;;;;;;;;;;;5128126;27;19910;-78
2021/11/12 06:06:12;;;;;;;;;;;;;;;;;;5127819;27;19904;-77
2021/11/12 06:08:38;;;;;;;;;;;;;;;;;;5133419;27;19908;-77
2021/11/12 06:11:03;;;;;;;;;;;;;;;;;;5126443;27;19901;-77
2021/11/12 06:13:28;;;;;;;;;;;;;;;;;;5130503;27;19961;-77
2021/11/12 06:15:54;;;;;;;;;;;;;;;;;;5130356;28;19904;-77
2021/11/12 06:18:19;;;;;;;;;;;;;;;;;;5127486;27;19914;-77
2021/11/12 06:20:45;;;;;;;;;;;;;;;;;;5134103;27;19914;-77
2021/11/12 06:23:10;;;;;;;;;;;;;;;;;;5131096;27;19960;-77
2021/11/12 06:25:35;;;;;;;;;;;;;;;;;;5134711;27;19995;-78
2021/11/12 06:28:01;;;;;;;;;;;;;;;;;;5127385;27;19991;-77
2021/11/12 06:30:26;;;;;;;;;;;;;;;;;;5128376;27;19900;-77
2021/11/12 06:32:51;;;;;;;;;;;;;;;;;;5133715;27;19955;-77
2021/11/12 06:35:17;;;;;;;;;;;;;;;;;;5134406;27;19908;-77
2021/11/12 06:37:43;;;;;;;;;;;;;;;;;;5133605;28;19915;-77
2021/11/12 06:40:10;;;;;;;;;;;;;;;;;;5132866;27;19930;-77
2021/11/12 06:42:39;;;;;;;;;;;;;;;;;;5133364;28;20060;-77
2021/11/12 06:50:32;;;;;;;;;;;;;;;;;;5133571;28;19900;-77
2021/11/12 06:52:57;;;;;;;;;;;;;;;;;;5134251;28;19906;-77
2021/11/12 06:55:22;;;;;;;;;;;;;;;;;;5134199;28;19900;-77
2021/11/12 06:57:48;;;;;;;;;;;;;;;;;;5129143;28;19912;-77
2021/11/12 07:00:14;;;;;;;;;;;;;;;;;;5126879;28;19934;-77
2021/11/12 07:02:40;;;;;;;;;;;;;;;;;;5131672;27;19978;-76
2021/11/12 07:05:06;;;;;;;;;;;;;;;;;;5133325;28;19911;-76
2021/11/12 07:07:31;;;;;;;;;;;;;;;;;;5135274;28;19908;-76
2021/11/12 07:09:56;;;;;;;;;;;;;;;;;;5133952;28;19899;-76
2021/11/12 07:12:22;;;;;;;;;;;;;;;;;;5134846;28;19927;-76
2021/11/12 07:14:47;;;;;;;;;;;;;;;;;;5132887;27;19899;-76
2021/11/12 07:17:12;;;;;;;;;;;;;;;;;;5133910;28;19911;-75
2021/11/12 07:19:37;;;;;;;;;;;;;;;;;;5135142;28;19926;-76
2021/11/12 07:22:03;;;;;;;;;;;;;;;;;;5133349;28;19959;-76
2021/11/12 07:24:28;;;;;;;;;;;;;;;;;;5132170;28;19967;-76
2021/11/12 07:26:53;;;;;;;;;;;;;;;;;;5128227;27;19908;-76
2021/11/12 07:29:20;;;;;;;;;;;;;;;;;;5132938;27;19904;-77
2021/11/12 07:31:45;;;;;;;;;;;;;;;;;;5131665;28;19924;-77
2021/11/12 07:34:11;;;;;;;;;;;;;;;;;;5132168;28;19899;-75
2021/11/12 07:36:40;;;;;;;;;;;;;;;;;;5129541;28;19903;-76
2021/11/12 07:39:19;;;;;;;;;;;;;;;;;;5131057;28;19903;-76
2021/11/12 07:47:10;;;;;;;;;;;;;;;;;;5131578;28;19900;-76
2021/11/12 07:49:36;;;;;;;;;;;;;;;;;;5131799;28;19916;-75
2021/11/12 07:52:02;;;;;;;;;;;;;;;;;;5131500;28;19933;-75
2021/11/12 07:54:27;;;;;;;;;;;;;;;;;;5126732;28;19935;-75
2021/11/12 07:56:53;;;;;;;;;;;;;;;;;;5129762;28;19926;-75
2021/11/12 07:59:19;;;;;;;;;;;;;;;;;;5130147;28;20141;-75
2021/11/12 08:01:44;;;;;;;;;;;;;;;;;;5113401;28;19920;-75
2021/11/12 08:04:10;;;;;;;;;;;;;;;;;;5129604;28;19908;-75
2021/11/12 08:06:35;;;;;;;;;;;;;;;;;;5130752;28;19971;-75
2021/11/12 08:09:07;;;;;;;;;;;;;;;;;;5130274;28;19900;-76
2021/11/12 08:11:41;;;;;;;;;;;;;;;;;;5131845;28;19900;-77
2021/11/12 08:14:10;;;;;;;;;;;;;;;;;;5128653;28;20158;-74
2021/11/12 08:21:53;;;;;;;;;;;;;;;;;;5130661;28;19906;-77
2021/11/12 08:25:08;;;;;;;;;;;;;;;;;;5128847;28;19920;-76
2021/11/12 08:27:29;;;;;;;;;;;;;;;;;;5119998;27;19910;-77
2021/11/12 08:41:07;;;;;;;;;;;;;;;;;;5128953;28;19904;-76
2021/11/12 08:46:11;;;;;;;;;;;;;;;;;;5130101;28;19900;-76
2021/11/12 08:51:16;;;;;;;;;;;;;;;;;;5131216;28;19914;-76
2021/11/12 08:53:42;;;;;;;;;;;;;;;;;;5129987;28;19908;-74
2021/11/12 08:56:12;;;;;;;;;;;;;;;;;;5129996;28;19919;-75
2021/11/12 08:58:38;;;;;;;;;;;;;;;;;;5130209;28;19934;-76
2021/11/12 09:01:03;;;;;;;;;;;;;;;;;;5131037;28;19983;-75
2021/11/12 09:03:28;;;;;;;;;;;;;;;;;;5131209;28;19971;-76
2021/11/12 09:05:53;;;;;;;;;;;;;;;;;;5131137;28;20001;-75
2021/11/12 09:08:19;;;;;;;;;;;;;;;;;;5130557;28;19900;-75
2021/11/12 09:10:44;;;;;;;;;;;;;;;;;;5130951;28;19912;-76
2021/11/12 09:13:20;;;;;;;;;;;;;;;;;;5130808;28;19911;-75
2021/11/12 09:15:51;;;;;;;;;;;;;;;;;;5127981;28;19919;-76
2021/11/12 09:18:18;;;;;;;;;;;;;;;;;;5129111;28;19923;-76
2021/11/12 09:20:43;;;;;;;;;;;;;;;;;;5131408;28;19979;-76
2021/11/12 09:23:09;;;;;;;;;;;;;;;;;;5131525;28;19911;-76
2021/11/12 09:25:34;;;;;;;;;;;;;;;;;;5130715;28;20182;-76
2021/11/12 09:27:59;;;;;;;;;;;;;;;;;;5130263;28;19908;-76
2021/11/12 09:30:25;;;;;;;;;;;;;;;;;;5129418;28;19963;-76
2021/11/12 09:32:50;;;;;;;;;;;;;;;;;;5131401;28;19900;-76
2021/11/12 09:35:15;;;;;;;;;;;;;;;;;;5130864;28;19910;-75
2021/11/12 09:37:40;;;;;;;;;;;;;;;;;;5130923;28;19915;-76
2021/11/12 09:40:06;;;;;;;;;;;;;;;;;;5131274;28;19947;-76
2021/11/12 09:42:31;;;;;;;;;;;;;;;;;;5130404;28;19934;-75
2021/11/12 09:44:56;;;;;;;;;;;;;;;;;;5130785;28;19939;-75
2021/11/12 09:47:25;;;;;;;;;;;;;;;;;;5111939;28;19915;-75
2021/11/12 09:49:50;;;;;;;;;;;;;;;;;;5132103;28;19936;-76
2021/11/12 09:52:15;;;;;;;;;;;;;;;;;;5134992;28;19899;-75
2021/11/12 09:54:41;;;;;;;;;;;;;;;;;;5134221;28;19907;-75
2021/11/12 09:57:06;;;;;;;;;;;;;;;;;;5116694;28;19904;-76
2021/11/12 09:59:33;;;;;;;;;;;;;;;;;;5133148;28;19919;-76
2021/11/12 10:01:59;;;;;;;;;;;;;;;;;;5134567;27;19900;-75
2021/11/12 10:04:24;;;;;;;;;;;;;;;;;;5133505;28;20299;-76
2021/11/12 10:06:49;;;;;;;;;;;;;;;;;;5134687;28;19904;-74
2021/11/12 10:09:14;;;;;;;;;;;;;;;;;;5133396;28;19916;-76
2021/11/12 10:11:40;;;;;;;;;;;;;;;;;;5134298;28;19926;-75
2021/11/12 10:14:09;;;;;;;;;;;;;;;;;;5133993;28;19907;-75
2021/11/12 10:16:39;;;;;;;;;;;;;;;;;;5134207;28;19960;-75
2021/11/12 10:19:05;;;;;;;;;;;;;;;;;;5134683;28;19950;-75
2021/11/12 10:21:31;;;;;;;;;;;;;;;;;;5134320;28;19900;-75
2021/11/12 10:23:56;;;;;;;;;;;;;;;;;;5134037;28;19895;-75
2021/11/12 10:26:21;;;;;;;;;;;;;;;;;;5133332;28;20209;-74
2021/11/12 10:28:46;;;;;;;;;;;;;;;;;;5135300;27;19964;-74
2021/11/12 10:31:12;;;;;;;;;;;;;;;;;;5132570;28;19923;-75
2021/11/12 10:33:37;;;;;;;;;;;;;;;;;;5133163;28;19912;-76
2021/11/12 10:36:02;;;;;;;;;;;;;;;;;;5132355;28;19919;-77
2021/11/12 10:38:27;;;;;;;;;;;;;;;;;;5131170;28;19912;-76
2021/11/12 10:40:53;;;;;;;;;;;;;;;;;;5133394;28;20064;-75
2021/11/12 10:43:18;;;;;;;;;;;;;;;;;;5132918;28;19983;-76
2021/11/12 10:45:43;;;;;;;;;;;;;;;;;;5133467;28;19900;-77
2021/11/12 10:48:09;;;;;;;;;;;;;;;;;;5132129;28;19899;-77
2021/11/12 10:50:34;;;;;;;;;;;;;;;;;;5130087;28;19948;-76
2021/11/12 10:53:00;;;;;;;;;;;;;;;;;;5132983;28;19904;-76
2021/11/12 10:55:25;;;;;;;;;;;;;;;;;;5130761;28;19908;-77
2021/11/12 10:57:50;;;;;;;;;;;;;;;;;;5132879;28;19915;-76
2021/11/12 11:00:16;;;;;;;;;;;;;;;;;;5132344;28;19904;-76
2021/11/12 11:02:41;;;;;;;;;;;;;;;;;;5124835;27;19900;-76
2021/11/12 11:05:08;;;;;;;;;;;;;;;;;;5130100;27;19911;-76
2021/11/12 11:07:33;;;;;;;;;;;;;;;;;;5132073;28;19972;-76
2021/11/12 11:09:58;;;;;;;;;;;;;;;;;;5131903;27;19911;-77
2021/11/12 11:12:24;;;;;;;;;;;;;;;;;;5130456;28;19908;-76
2021/11/12 11:14:49;;;;;;;;;;;;;;;;;;5132265;28;19911;-76
2021/11/12 11:17:14;;;;;;;;;;;;;;;;;;5131779;28;19911;-76
2021/11/12 11:19:39;;;;;;;;;;;;;;;;;;5132578;27;19982;-76
2021/11/12 11:22:10;;;;;;;;;;;;;;;;;;5127575;28;20189;-77
2021/11/12 11:24:35;;;;;;;;;;;;;;;;;;5130873;28;19907;-76
2021/11/12 11:27:00;;;;;;;;;;;;;;;;;;5130824;28;19958;-76
2021/11/12 11:29:26;;;;;;;;;;;;;;;;;;5132040;28;19982;-77
2021/11/12 11:31:51;;;;;;;;;;;;;;;;;;5132980;28;19922;-76
2021/11/12 11:34:18;;;;;;;;;;;;;;;;;;5132547;27;19927;-76
2021/11/12 11:36:46;;;;;;;;;;;;;;;;;;5131958;28;19939;-76
2021/11/12 11:39:11;;;;;;;;;;;;;;;;;;5130749;28;19914;-76
2021/11/12 11:41:37;;;;;;;;;;;;;;;;;;5131385;28;19927;-75
2021/11/12 11:44:02;;;;;;;;;;;;;;;;;;5124315;28;19919;-76
2021/11/12 11:46:27;;;;;;;;;;;;;;;;;;5130355;28;20065;-76
2021/11/12 11:48:52;;;;;;;;;;;;;;;;;;5130913;28;20197;-75
2021/11/12 11:51:17;;;;;;;;;;;;;;;;;;5131389;28;19904;-76
2021/11/12 11:53:43;;;;;;;;;;;;;;;;;;5129557;28;19915;-75
2021/11/12 11:56:08;;;;;;;;;;;;;;;;;;5130700;28;19900;-75
2021/11/12 11:58:34;;;;;;;;;;;;;;;;;;5125347;28;19911;-75
2021/11/12 12:00:59;;;;;;;;;;;;;;;;;;5124710;27;19903;-77
2021/11/12 12:03:24;;;;;;;;;;;;;;;;;;5129458;28;20150;-77
2021/11/12 12:05:49;;;;;;;;;;;;;;;;;;5128899;28;19911;-77
2021/11/12 12:08:14;;;;;;;;;;;;;;;;;;5131724;27;19954;-78
2021/11/12 12:10:40;;;;;;;;;;;;;;;;;;5131399;28;19900;-79
2021/11/12 12:13:05;;;;;;;;;;;;;;;;;;5129670;28;19911;-76
2021/11/12 12:15:30;;;;;;;;;;;;;;;;;;5130189;28;19910;-77
2021/11/12 12:17:55;;;;;;;;;;;;;;;;;;5132105;28;19959;-76
2021/11/12 12:36:35;;;;;;;;;;;;;;;;;;5132263;28;19907;-76
2021/11/12 13:25:12;;;;;;;;;;;;;;;;;;5130386;28;19999;-77
2021/11/12 13:27:37;;;;;;;;;;;;;;;;;;5135451;27;20079;-78
2021/11/12 13:30:02;;;;;;;;;;;;;;;;;;5136907;27;19900;-78
2021/11/12 13:32:28;;;;;;;;;;;;;;;;;;5132571;28;20132;-77
2021/11/12 13:34:53;;;;;;;;;;;;;;;;;;5134899;27;19935;-78
2021/11/12 13:37:18;;;;;;;;;;;;;;;;;;5132711;28;19904;-79
2021/11/12 13:39:44;;;;;;;;;;;;;;;;;;5132204;28;19993;-77
2021/11/12 13:42:09;;;;;;;;;;;;;;;;;;5134772;28;19955;-79
2021/11/12 13:44:38;;;;;;;;;;;;;;;;;;5133510;28;20251;-77
2021/11/12 13:47:03;;;;;;;;;;;;;;;;;;5135656;28;19921;-78
2021/11/12 13:49:29;;;;;;;;;;;;;;;;;;5136737;28;19900;-77
2021/11/12 13:51:54;;;;;;;;;;;;;;;;;;5135984;28;19908;-77
2021/11/12 13:54:19;;;;;;;;;;;;;;;;;;5135692;28;19955;-77
2021/11/12 13:56:44;;;;;;;;;;;;;;;;;;5135800;28;20007;-77
2021/11/12 13:59:09;;;;;;;;;;;;;;;;;;5136202;28;19911;-77
2021/11/12 14:01:35;;;;;;;;;;;;;;;;;;5136134;28;19911;-78
2021/11/12 14:04:01;;;;;;;;;;;;;;;;;;5135908;28;19904;-78
2021/11/12 14:06:26;;;;;;;;;;;;;;;;;;5136621;28;19911;-78
2021/11/12 14:08:52;;;;;;;;;;;;;;;;;;5117499;28;19934;-78
2021/11/12 14:11:18;;;;;;;;;;;;;;;;;;5135827;28;19903;-78
2021/11/12 14:13:45;;;;;;;;;;;;;;;;;;5117956;28;19903;-78
2021/11/12 14:16:17;;;;;;;;;;;;;;;;;;5135689;28;19900;-77
2021/11/12 14:18:51;;;;;;;;;;;;;;;;;;5135832;28;19939;-78
2021/11/12 14:21:23;;;;;;;;;;;;;;;;;;5135877;28;19923;-78
2021/11/12 14:23:49;;;;;;;;;;;;;;;;;;5136212;28;19900;-78
2021/11/12 14:26:23;;;;;;;;;;;;;;;;;;5135789;28;19900;-78
2021/11/12 14:28:55;;;;;;;;;;;;;;;;;;5136950;27;19900;-78
2021/11/12 14:31:30;;;;;;;;;;;;;;;;;;5136573;28;19967;-78
2021/11/12 14:36:38;;;;;;;;;;;;;;;;;;5133878;28;20125;-78
2021/11/12 14:39:07;;;;;;;;;;;;;;;;;;5135843;28;19908;-78
2021/11/12 14:41:56;;;;;;;;;;;;;;;;;;5135696;28;19918;-78
2021/11/12 14:44:45;;;;;;;;;;;;;;;;;;5133885;28;19911;-78
2021/11/12 14:47:27;;;;;;;;;;;;;;;;;;5135490;28;19900;-78
2021/11/12 14:50:28;;;;;;;;;;;;;;;;;;5134787;28;19908;-77
2021/11/12 14:52:44;;;;;;;;;;;;;;;;;;5148908;27;19911;-78
2021/11/12 14:55:10;;;;;;;;;;;;;;;;;;5135569;28;19912;-78
2021/11/12 14:57:39;;;;;;;;;;;;;;;;;;5135692;28;19937;-78
2021/11/12 15:00:08;;;;;;;;;;;;;;;;;;5133712;28;19907;-78
2021/11/12 15:02:34;;;;;;;;;;;;;;;;;;5135008;28;20145;-77
2021/11/12 15:04:59;;;;;;;;;;;;;;;;;;5128497;28;19904;-78
2021/11/12 15:10:26;;;;;;;;;;;;;;;;;;5125761;28;19904;-80
2021/11/12 15:12:52;;;;;;;;;;;;;;;;;;5129473;28;19900;-77
2021/11/12 15:15:17;;;;;;;;;;;;;;;;;;5131956;27;19919;-76
2021/11/12 15:17:43;;;;;;;;;;;;;;;;;;5131637;27;19904;-76
2021/11/12 15:20:08;;;;;;;;;;;;;;;;;;5131462;27;19903;-75
2021/11/12 15:25:15;;;;;;;;;;;;;;;;;;5131012;28;19911;-77
2021/11/12 15:30:51;;;;;;;;;;;;;;;;;;5132583;28;19961;-76
2021/11/12 15:33:14;;;;;;;;;;;;;;;;;;5121489;28;19959;-76
2021/11/12 15:35:40;;;;;;;;;;;;;;;;;;5129693;27;19915;-77
2021/11/12 15:40:36;;;;;;;;;;;;;;;;;;5132731;28;19935;-77
2021/11/12 15:48:33;;;;;;;;;;;;;;;;;;5126810;28;19912;-76
2021/11/12 15:53:53;;;;;;;;;;;;;;;;;;5133097;27;19915;-77
2021/11/12 15:59:20;;;;;;;;;;;;;;;;;;5132880;28;20155;-76
2021/11/12 16:04:54;;;;;;;;;;;;;;;;;;5132867;28;20125;-77
2021/11/12 16:07:43;;;;;;;;;;;;;;;;;;5129931;28;20100;-77
2021/11/12 16:26:04;;;;;;;;;;;;;;;;;;5130387;28;20228;-76
2021/11/12 16:28:44;;;;;;;;;;;;;;;;;;5131775;27;19919;-77
2021/11/12 16:31:09;;;;;;;;;;;;;;;;;;5131856;28;19934;-76
2021/11/12 16:33:35;;;;;;;;;;;;;;;;;;5133625;27;19908;-76
2021/11/12 16:36:05;;;;;;;;;;;;;;;;;;5130775;28;19911;-76
2021/11/12 16:38:34;;;;;;;;;;;;;;;;;;5131552;28;19908;-76
2021/11/12 16:41:11;;;;;;;;;;;;;;;;;;5127429;28;19935;-76
2021/11/12 16:53:52;;;;;;;;;;;;;;;;;;5132069;28;19918;-74
2021/11/12 17:14:20;;;;;;;;;;;;;;;;;;5128619;28;19984;-77
2021/11/12 17:48:41;;;;;;;;;;;;;;;;;;5128424;28;19908;-76
2021/11/12 18:04:48;;;;;;;;;;;;;;;;;;5129374;28;19910;-79
2021/11/12 18:15:54;;;;;;;;;;;;;;;;;;5106674;28;19908;-76
2021/11/12 21:48:08;;;;;;;;;;;;;;;;;;5115268;28;19981;-77
2021/11/12 21:50:33;;;;;;;;;;;;;;;;;;5114689;28;19995;-76
2021/11/12 21:52:58;;;;;;;;;;;;;;;;;;5113532;28;19908;-76
2021/11/12 21:55:24;;;;;;;;;;;;;;;;;;5113470;28;20144;-77
2021/11/12 21:57:49;;;;;;;;;;;;;;;;;;5114056;28;20318;-77
2021/11/12 22:00:15;;;;;;;;;;;;;;;;;;5113149;28;19934;-76
2021/11/12 22:02:40;;;;;;;;;;;;;;;;;;5113987;28;19941;-76
2021/11/12 22:05:06;;;;;;;;;;;;;;;;;;5111502;28;19923;-76
2021/11/12 22:07:31;;;;;;;;;;;;;;;;;;5119180;28;19900;-76
2021/11/12 22:09:56;;;;;;;;;;;;;;;;;;5114082;28;19934;-76
2021/11/12 22:12:22;;;;;;;;;;;;;;;;;;5111494;28;19916;-77
2021/11/12 22:14:48;;;;;;;;;;;;;;;;;;5114193;28;20217;-77
2021/11/12 22:17:15;;;;;;;;;;;;;;;;;;5113416;28;20411;-77
2021/11/12 22:19:40;;;;;;;;;;;;;;;;;;5114386;28;19919;-77
2021/11/12 22:22:05;;;;;;;;;;;;;;;;;;5113839;28;19915;-77
2021/11/12 22:24:30;;;;;;;;;;;;;;;;;;5112573;28;19907;-77
2021/11/12 22:26:56;;;;;;;;;;;;;;;;;;5113101;28;19956;-77
2021/11/12 22:29:23;;;;;;;;;;;;;;;;;;5112116;28;19915;-77
2021/11/12 22:31:48;;;;;;;;;;;;;;;;;;5112504;28;19945;-77
2021/11/12 22:34:13;;;;;;;;;;;;;;;;;;5113044;28;19970;-76
2021/11/12 22:36:39;;;;;;;;;;;;;;;;;;5114565;28;19909;-76
2021/11/12 22:39:04;;;;;;;;;;;;;;;;;;5113759;28;19985;-77
2021/11/12 22:41:30;;;;;;;;;;;;;;;;;;5114793;28;19912;-77
2021/11/12 22:43:59;;;;;;;;;;;;;;;;;;5113069;28;19900;-77
2021/11/12 22:46:24;;;;;;;;;;;;;;;;;;5114901;28;19907;-76
2021/11/12 22:48:49;;;;;;;;;;;;;;;;;;5113707;28;19915;-76
2021/11/12 22:51:15;;;;;;;;;;;;;;;;;;5115021;28;19896;-76
2021/11/12 22:53:40;;;;;;;;;;;;;;;;;;5113255;28;19900;-77
2021/11/12 22:56:05;;;;;;;;;;;;;;;;;;5114544;28;19900;-76
2021/11/12 22:58:30;;;;;;;;;;;;;;;;;;5113511;28;19923;-77
2021/11/12 23:00:58;;;;;;;;;;;;;;;;;;5113527;28;19900;-76
2021/11/12 23:03:23;;;;;;;;;;;;;;;;;;5113799;28;19965;-77
2021/11/12 23:05:49;;;;;;;;;;;;;;;;;;5113564;28;20188;-77
2021/11/12 23:08:14;;;;;;;;;;;;;;;;;;5114112;28;19959;-76
2021/11/12 23:10:39;;;;;;;;;;;;;;;;;;5136204;27;19896;-77
2021/11/12 23:13:04;;;;;;;;;;;;;;;;;;5113438;28;19911;-76
2021/11/12 23:15:30;;;;;;;;;;;;;;;;;;5113724;28;19900;-76
2021/11/12 23:17:55;;;;;;;;;;;;;;;;;;5113433;28;19908;-77
2021/11/12 23:20:20;;;;;;;;;;;;;;;;;;5111939;28;19908;-76
2021/11/12 23:22:45;;;;;;;;;;;;;;;;;;5113442;28;19900;-76
2021/11/12 23:25:10;;;;;;;;;;;;;;;;;;5113205;28;19901;-75
2021/11/12 23:27:37;;;;;;;;;;;;;;;;;;5113263;28;19908;-75
2021/11/12 23:30:02;;;;;;;;;;;;;;;;;;5113297;28;19925;-76
2021/11/12 23:32:27;;;;;;;;;;;;;;;;;;5114239;28;19901;-76
2021/11/12 23:34:52;;;;;;;;;;;;;;;;;;5094937;28;19916;-76
2021/11/12 23:37:18;;;;;;;;;;;;;;;;;;5110090;28;19983;-76
2021/11/12 23:39:43;;;;;;;;;;;;;;;;;;5111625;28;19900;-76
2021/11/12 23:42:08;;;;;;;;;;;;;;;;;;5113936;28;19919;-75
2021/11/12 23:44:33;;;;;;;;;;;;;;;;;;5112923;28;19925;-75
2021/11/12 23:47:00;;;;;;;;;;;;;;;;;;5095226;28;19915;-75
2021/11/12 23:49:26;;;;;;;;;;;;;;;;;;5111977;28;19915;-75
2021/11/12 23:51:52;;;;;;;;;;;;;;;;;;5113424;28;19900;-78
2021/11/12 23:54:17;;;;;;;;;;;;;;;;;;5111452;28;19908;-77
2021/11/12 23:56:42;;;;;;;;;;;;;;;;;;5112770;28;19941;-76
2021/11/12 23:59:07;;;;;;;;;;;;;;;;;;5113194;28;19908;-77
